sensor_id;sensor_type;location;lat;lon;timestamp;temperature;humidity
18506;DHT22;9382;53.242;10.438;2022-08-19T00:01:59;19.20;99.90
18506;DHT22;9382;53.242;10.438;2022-08-19T00:04:28;19.20;99.90
18506;DHT22;9382;53.242;10.438;2022-08-19T00:06:55;19.10;99.90
18506;DHT22;9382;53.242;10.438;2022-08-19T00:09:23;19.00;99.90
18506;DHT22;9382;53.242;10.438;2022-08-19T00:11:53;19.00;99.90
18506;DHT22;9382;53.242;10.438;2022-08-19T00:14:21;19.00;99.90
18506;DHT22;9382;53.242;10.438;2022-08-19T00:16:49;19.00;99.90
18506;DHT22;9382;53.242;10.438;2022-08-19T00:19:20;19.00;99.90
18506;DHT22;9382;53.242;10.438;2022-08-19T00:21:47;19.00;99.90
18506;DHT22;9382;53.242;10.438;2022-08-19T00:24:14;19.00;99.90
18506;DHT22;9382;53.242;10.438;2022-08-19T00:26:43;18.90;99.90
18506;DHT22;9382;53.242;10.438;2022-08-19T00:29:13;18.90;99.90
18506;DHT22;9382;53.242;10.438;2022-08-19T00:31:41;18.90;99.90
18506;DHT22;9382;53.242;10.438;2022-08-19T00:34:08;18.80;99.90
18506;DHT22;9382;53.242;10.438;2022-08-19T00:36:35;18.80;99.90
18506;DHT22;9382;53.242;10.438;2022-08-19T00:39:03;18.90;99.90
18506;DHT22;9382;53.242;10.438;2022-08-19T00:41:30;18.80;99.90
18506;DHT22;9382;53.242;10.438;2022-08-19T00:43:58;18.70;99.90
18506;DHT22;9382;53.242;10.438;2022-08-19T00:46:27;18.70;99.90
18506;DHT22;9382;53.242;10.438;2022-08-19T00:48:54;18.70;99.90
18506;DHT22;9382;53.242;10.438;2022-08-19T00:51:22;18.60;99.90
18506;DHT22;9382;53.242;10.438;2022-08-19T00:53:52;18.70;99.90
18506;DHT22;9382;53.242;10.438;2022-08-19T00:56:19;18.70;99.90
18506;DHT22;9382;53.242;10.438;2022-08-19T00:58:46;18.70;99.90
18506;DHT22;9382;53.242;10.438;2022-08-19T01:01:13;18.70;99.90
18506;DHT22;9382;53.242;10.438;2022-08-19T01:03:41;18.60;99.90
18506;DHT22;9382;53.242;10.438;2022-08-19T01:06:07;18.70;99.90
18506;DHT22;9382;53.242;10.438;2022-08-19T01:08:34;18.70;99.90
18506;DHT22;9382;53.242;10.438;2022-08-19T01:11:02;18.70;99.90
18506;DHT22;9382;53.242;10.438;2022-08-19T01:13:32;18.70;99.90
18506;DHT22;9382;53.242;10.438;2022-08-19T01:16:01;18.70;99.90
18506;DHT22;9382;53.242;10.438;2022-08-19T01:18:29;18.70;99.90
18506;DHT22;9382;53.242;10.438;2022-08-19T01:21:02;18.70;99.90
18506;DHT22;9382;53.242;10.438;2022-08-19T01:23:32;18.70;99.90
18506;DHT22;9382;53.242;10.438;2022-08-19T01:26:11;18.70;99.90
18506;DHT22;9382;53.242;10.438;2022-08-19T01:28:39;18.70;99.90
18506;DHT22;9382;53.242;10.438;2022-08-19T01:31:07;18.70;99.90
18506;DHT22;9382;53.242;10.438;2022-08-19T01:33:37;18.70;99.90
18506;DHT22;9382;53.242;10.438;2022-08-19T01:36:09;18.70;99.90
18506;DHT22;9382;53.242;10.438;2022-08-19T01:38:39;18.70;99.90
18506;DHT22;9382;53.242;10.438;2022-08-19T01:41:07;18.60;99.90
18506;DHT22;9382;53.242;10.438;2022-08-19T01:43:34;18.60;99.90
18506;DHT22;9382;53.242;10.438;2022-08-19T01:46:02;18.60;99.90
18506;DHT22;9382;53.242;10.438;2022-08-19T01:48:33;18.60;99.90
18506;DHT22;9382;53.242;10.438;2022-08-19T01:51:00;18.60;99.90
18506;DHT22;9382;53.242;10.438;2022-08-19T01:53:27;18.60;99.90
18506;DHT22;9382;53.242;10.438;2022-08-19T01:55:55;18.60;99.90
18506;DHT22;9382;53.242;10.438;2022-08-19T01:58:25;18.60;99.90
18506;DHT22;9382;53.242;10.438;2022-08-19T02:00:54;18.60;99.90
18506;DHT22;9382;53.242;10.438;2022-08-19T02:03:21;18.50;99.90
18506;DHT22;9382;53.242;10.438;2022-08-19T02:05:53;18.50;99.90
18506;DHT22;9382;53.242;10.438;2022-08-19T02:08:20;18.40;99.90
18506;DHT22;9382;53.242;10.438;2022-08-19T02:10:46;18.40;99.90
18506;DHT22;9382;53.242;10.438;2022-08-19T02:13:14;18.40;99.90
18506;DHT22;9382;53.242;10.438;2022-08-19T02:15:41;18.40;99.90
18506;DHT22;9382;53.242;10.438;2022-08-19T02:18:08;18.40;99.90
18506;DHT22;9382;53.242;10.438;2022-08-19T02:20:37;18.40;99.90
18506;DHT22;9382;53.242;10.438;2022-08-19T02:23:04;18.40;99.90
18506;DHT22;9382;53.242;10.438;2022-08-19T02:25:31;18.40;99.90
18506;DHT22;9382;53.242;10.438;2022-08-19T02:27:58;18.40;99.90
18506;DHT22;9382;53.242;10.438;2022-08-19T02:30:26;18.30;99.90
18506;DHT22;9382;53.242;10.438;2022-08-19T02:32:53;18.30;99.90
18506;DHT22;9382;53.242;10.438;2022-08-19T02:35:20;18.30;99.90
18506;DHT22;9382;53.242;10.438;2022-08-19T02:37:48;18.30;99.90
18506;DHT22;9382;53.242;10.438;2022-08-19T02:40:32;18.30;99.90
18506;DHT22;9382;53.242;10.438;2022-08-19T02:43:00;18.30;99.90
18506;DHT22;9382;53.242;10.438;2022-08-19T02:45:31;18.30;99.90
18506;DHT22;9382;53.242;10.438;2022-08-19T02:47:58;18.30;99.90
18506;DHT22;9382;53.242;10.438;2022-08-19T02:50:25;18.30;99.90
18506;DHT22;9382;53.242;10.438;2022-08-19T02:52:52;18.40;99.90
18506;DHT22;9382;53.242;10.438;2022-08-19T02:55:19;18.30;99.90
18506;DHT22;9382;53.242;10.438;2022-08-19T02:57:46;18.40;99.90
18506;DHT22;9382;53.242;10.438;2022-08-19T03:00:14;18.30;99.90
18506;DHT22;9382;53.242;10.438;2022-08-19T03:02:42;18.30;99.90
18506;DHT22;9382;53.242;10.438;2022-08-19T03:05:09;18.30;99.90
18506;DHT22;9382;53.242;10.438;2022-08-19T03:07:37;18.30;99.90
18506;DHT22;9382;53.242;10.438;2022-08-19T03:10:05;18.20;99.90
18506;DHT22;9382;53.242;10.438;2022-08-19T03:12:35;18.20;99.90
18506;DHT22;9382;53.242;10.438;2022-08-19T03:15:03;18.20;99.90
18506;DHT22;9382;53.242;10.438;2022-08-19T03:17:30;18.20;99.90
18506;DHT22;9382;53.242;10.438;2022-08-19T03:19:59;18.30;99.90
18506;DHT22;9382;53.242;10.438;2022-08-19T03:22:26;18.20;99.90
18506;DHT22;9382;53.242;10.438;2022-08-19T03:24:53;18.30;99.90
18506;DHT22;9382;53.242;10.438;2022-08-19T03:27:19;18.30;99.90
18506;DHT22;9382;53.242;10.438;2022-08-19T03:29:46;18.30;99.90
18506;DHT22;9382;53.242;10.438;2022-08-19T03:32:13;18.30;99.90
18506;DHT22;9382;53.242;10.438;2022-08-19T03:34:40;18.30;99.90
18506;DHT22;9382;53.242;10.438;2022-08-19T03:37:10;18.40;99.90
18506;DHT22;9382;53.242;10.438;2022-08-19T03:39:39;18.40;99.90
18506;DHT22;9382;53.242;10.438;2022-08-19T03:42:08;18.40;99.90
18506;DHT22;9382;53.242;10.438;2022-08-19T03:44:35;18.40;99.90
18506;DHT22;9382;53.242;10.438;2022-08-19T03:47:03;18.40;99.90
18506;DHT22;9382;53.242;10.438;2022-08-19T03:49:31;18.40;99.90
18506;DHT22;9382;53.242;10.438;2022-08-19T03:52:01;18.40;99.90
18506;DHT22;9382;53.242;10.438;2022-08-19T03:54:29;18.40;99.90
18506;DHT22;9382;53.242;10.438;2022-08-19T03:56:56;18.40;99.90
18506;DHT22;9382;53.242;10.438;2022-08-19T03:59:25;18.40;99.90
18506;DHT22;9382;53.242;10.438;2022-08-19T04:01:54;18.40;99.90
18506;DHT22;9382;53.242;10.438;2022-08-19T04:04:21;18.40;99.90
18506;DHT22;9382;53.242;10.438;2022-08-19T04:06:48;18.50;99.90
18506;DHT22;9382;53.242;10.438;2022-08-19T04:09:16;18.50;99.90
18506;DHT22;9382;53.242;10.438;2022-08-19T04:11:46;18.60;99.90
18506;DHT22;9382;53.242;10.438;2022-08-19T04:14:16;18.60;99.90
18506;DHT22;9382;53.242;10.438;2022-08-19T04:16:44;18.50;99.90
18506;DHT22;9382;53.242;10.438;2022-08-19T04:19:12;18.50;99.90
18506;DHT22;9382;53.242;10.438;2022-08-19T04:21:39;18.50;99.90
18506;DHT22;9382;53.242;10.438;2022-08-19T04:24:06;18.50;99.90
18506;DHT22;9382;53.242;10.438;2022-08-19T04:26:35;18.60;99.90
18506;DHT22;9382;53.242;10.438;2022-08-19T04:29:07;18.60;99.90
18506;DHT22;9382;53.242;10.438;2022-08-19T04:31:35;18.60;99.90
18506;DHT22;9382;53.242;10.438;2022-08-19T04:34:04;18.60;99.90
18506;DHT22;9382;53.242;10.438;2022-08-19T04:36:34;18.60;99.90
18506;DHT22;9382;53.242;10.438;2022-08-19T04:39:04;18.60;99.90
18506;DHT22;9382;53.242;10.438;2022-08-19T04:41:33;18.60;99.90
18506;DHT22;9382;53.242;10.438;2022-08-19T04:44:19;18.60;99.90
18506;DHT22;9382;53.242;10.438;2022-08-19T04:46:46;18.70;99.90
18506;DHT22;9382;53.242;10.438;2022-08-19T04:49:14;18.70;99.90
18506;DHT22;9382;53.242;10.438;2022-08-19T04:51:44;18.70;99.90
18506;DHT22;9382;53.242;10.438;2022-08-19T04:54:13;18.70;99.90
18506;DHT22;9382;53.242;10.438;2022-08-19T04:56:40;18.70;99.90
18506;DHT22;9382;53.242;10.438;2022-08-19T04:59:07;18.70;99.90
18506;DHT22;9382;53.242;10.438;2022-08-19T05:01:35;18.70;99.90
18506;DHT22;9382;53.242;10.438;2022-08-19T05:04:04;18.70;99.90
18506;DHT22;9382;53.242;10.438;2022-08-19T05:06:32;18.60;99.90
18506;DHT22;9382;53.242;10.438;2022-08-19T05:08:59;18.70;99.90
18506;DHT22;9382;53.242;10.438;2022-08-19T05:11:29;18.70;99.90
18506;DHT22;9382;53.242;10.438;2022-08-19T05:13:56;18.70;99.90
18506;DHT22;9382;53.242;10.438;2022-08-19T05:16:24;18.80;99.90
18506;DHT22;9382;53.242;10.438;2022-08-19T05:18:53;18.80;99.90
18506;DHT22;9382;53.242;10.438;2022-08-19T05:21:39;18.80;99.90
18506;DHT22;9382;53.242;10.438;2022-08-19T05:24:25;18.80;99.90
18506;DHT22;9382;53.242;10.438;2022-08-19T05:26:52;18.80;99.90
18506;DHT22;9382;53.242;10.438;2022-08-19T05:29:23;18.70;99.90
18506;DHT22;9382;53.242;10.438;2022-08-19T05:31:51;18.80;99.90
18506;DHT22;9382;53.242;10.438;2022-08-19T05:34:21;18.70;99.90
18506;DHT22;9382;53.242;10.438;2022-08-19T05:36:51;18.80;99.90
18506;DHT22;9382;53.242;10.438;2022-08-19T05:39:23;18.70;99.90
18506;DHT22;9382;53.242;10.438;2022-08-19T05:41:54;18.80;99.90
18506;DHT22;9382;53.242;10.438;2022-08-19T05:44:24;18.80;99.90
18506;DHT22;9382;53.242;10.438;2022-08-19T05:46:51;18.80;99.90
18506;DHT22;9382;53.242;10.438;2022-08-19T05:49:22;18.80;99.90
18506;DHT22;9382;53.242;10.438;2022-08-19T05:51:49;18.90;99.90
18506;DHT22;9382;53.242;10.438;2022-08-19T05:54:16;18.80;99.90
18506;DHT22;9382;53.242;10.438;2022-08-19T05:56:45;18.80;99.90
18506;DHT22;9382;53.242;10.438;2022-08-19T05:59:13;18.80;99.90
18506;DHT22;9382;53.242;10.438;2022-08-19T06:01:42;18.80;99.90
18506;DHT22;9382;53.242;10.438;2022-08-19T06:04:09;18.80;99.90
18506;DHT22;9382;53.242;10.438;2022-08-19T06:06:37;18.90;99.90
18506;DHT22;9382;53.242;10.438;2022-08-19T06:09:06;19.00;99.90
18506;DHT22;9382;53.242;10.438;2022-08-19T06:11:35;19.00;99.90
18506;DHT22;9382;53.242;10.438;2022-08-19T06:14:05;19.00;99.90
18506;DHT22;9382;53.242;10.438;2022-08-19T06:16:34;19.10;99.90
18506;DHT22;9382;53.242;10.438;2022-08-19T06:19:03;19.10;99.90
18506;DHT22;9382;53.242;10.438;2022-08-19T06:21:32;19.20;99.90
18506;DHT22;9382;53.242;10.438;2022-08-19T06:24:00;19.20;99.90
18506;DHT22;9382;53.242;10.438;2022-08-19T06:26:28;19.20;99.90
18506;DHT22;9382;53.242;10.438;2022-08-19T06:28:55;19.30;99.90
18506;DHT22;9382;53.242;10.438;2022-08-19T06:31:24;19.40;99.90
18506;DHT22;9382;53.242;10.438;2022-08-19T06:33:52;19.50;99.90
18506;DHT22;9382;53.242;10.438;2022-08-19T06:36:22;19.50;99.90
18506;DHT22;9382;53.242;10.438;2022-08-19T06:38:53;19.50;99.90
18506;DHT22;9382;53.242;10.438;2022-08-19T06:41:21;19.60;99.90
18506;DHT22;9382;53.242;10.438;2022-08-19T06:43:48;19.60;99.90
18506;DHT22;9382;53.242;10.438;2022-08-19T06:46:17;19.60;99.90
18506;DHT22;9382;53.242;10.438;2022-08-19T06:48:45;19.50;99.90
18506;DHT22;9382;53.242;10.438;2022-08-19T06:51:13;19.50;99.90
18506;DHT22;9382;53.242;10.438;2022-08-19T06:53:41;19.50;99.90
18506;DHT22;9382;53.242;10.438;2022-08-19T06:56:13;19.50;99.90
18506;DHT22;9382;53.242;10.438;2022-08-19T06:58:41;19.50;99.90
18506;DHT22;9382;53.242;10.438;2022-08-19T07:01:08;19.40;99.90
18506;DHT22;9382;53.242;10.438;2022-08-19T07:03:36;19.40;99.90
18506;DHT22;9382;53.242;10.438;2022-08-19T07:06:05;19.40;99.90
18506;DHT22;9382;53.242;10.438;2022-08-19T07:08:32;19.30;99.90
18506;DHT22;9382;53.242;10.438;2022-08-19T07:10:59;19.30;99.90
18506;DHT22;9382;53.242;10.438;2022-08-19T07:13:26;19.20;99.90
18506;DHT22;9382;53.242;10.438;2022-08-19T07:15:54;19.20;99.90
18506;DHT22;9382;53.242;10.438;2022-08-19T07:18:21;19.20;99.90
18506;DHT22;9382;53.242;10.438;2022-08-19T07:20:48;19.20;99.90
18506;DHT22;9382;53.242;10.438;2022-08-19T07:23:15;19.20;99.90
18506;DHT22;9382;53.242;10.438;2022-08-19T07:25:42;19.20;99.90
18506;DHT22;9382;53.242;10.438;2022-08-19T07:28:09;19.20;99.90
18506;DHT22;9382;53.242;10.438;2022-08-19T07:30:37;19.20;99.90
18506;DHT22;9382;53.242;10.438;2022-08-19T07:33:07;19.10;99.90
18506;DHT22;9382;53.242;10.438;2022-08-19T07:35:34;19.10;99.90
18506;DHT22;9382;53.242;10.438;2022-08-19T07:38:00;19.20;99.90
18506;DHT22;9382;53.242;10.438;2022-08-19T07:40:29;19.20;99.90
18506;DHT22;9382;53.242;10.438;2022-08-19T07:42:56;19.10;99.90
18506;DHT22;9382;53.242;10.438;2022-08-19T07:45:23;19.00;99.90
18506;DHT22;9382;53.242;10.438;2022-08-19T07:47:50;19.10;99.90
18506;DHT22;9382;53.242;10.438;2022-08-19T07:50:19;19.10;99.90
18506;DHT22;9382;53.242;10.438;2022-08-19T07:52:46;19.10;99.90
18506;DHT22;9382;53.242;10.438;2022-08-19T07:55:16;19.10;99.90
18506;DHT22;9382;53.242;10.438;2022-08-19T07:57:43;19.00;99.90
18506;DHT22;9382;53.242;10.438;2022-08-19T08:00:10;19.00;99.90
18506;DHT22;9382;53.242;10.438;2022-08-19T08:02:37;19.00;99.90
18506;DHT22;9382;53.242;10.438;2022-08-19T08:05:05;19.00;99.90
18506;DHT22;9382;53.242;10.438;2022-08-19T08:08:02;19.00;99.90
18506;DHT22;9382;53.242;10.438;2022-08-19T08:11:01;18.90;99.90
18506;DHT22;9382;53.242;10.438;2022-08-19T08:13:28;18.90;99.90
18506;DHT22;9382;53.242;10.438;2022-08-19T08:15:55;18.90;99.90
18506;DHT22;9382;53.242;10.438;2022-08-19T08:18:22;18.90;99.90
18506;DHT22;9382;53.242;10.438;2022-08-19T08:20:49;18.90;99.90
18506;DHT22;9382;53.242;10.438;2022-08-19T08:23:17;18.80;99.90
18506;DHT22;9382;53.242;10.438;2022-08-19T08:25:51;18.80;99.90
18506;DHT22;9382;53.242;10.438;2022-08-19T08:28:19;18.90;99.90
18506;DHT22;9382;53.242;10.438;2022-08-19T08:30:47;18.90;99.90
18506;DHT22;9382;53.242;10.438;2022-08-19T08:33:14;18.90;99.90
18506;DHT22;9382;53.242;10.438;2022-08-19T08:35:43;18.90;99.90
18506;DHT22;9382;53.242;10.438;2022-08-19T08:38:11;19.00;99.90
18506;DHT22;9382;53.242;10.438;2022-08-19T08:40:44;19.00;99.90
18506;DHT22;9382;53.242;10.438;2022-08-19T08:43:24;19.00;99.90
18506;DHT22;9382;53.242;10.438;2022-08-19T08:45:59;19.00;99.90
18506;DHT22;9382;53.242;10.438;2022-08-19T08:48:34;18.90;99.90
18506;DHT22;9382;53.242;10.438;2022-08-19T08:51:04;18.90;99.90
18506;DHT22;9382;53.242;10.438;2022-08-19T08:53:32;18.80;99.90
18506;DHT22;9382;53.242;10.438;2022-08-19T08:56:04;18.70;99.90
18506;DHT22;9382;53.242;10.438;2022-08-19T08:58:39;18.70;99.90
18506;DHT22;9382;53.242;10.438;2022-08-19T09:01:09;18.80;99.90
18506;DHT22;9382;53.242;10.438;2022-08-19T09:03:39;18.70;99.90
18506;DHT22;9382;53.242;10.438;2022-08-19T09:06:13;18.80;99.90
18506;DHT22;9382;53.242;10.438;2022-08-19T09:08:47;18.80;99.90
18506;DHT22;9382;53.242;10.438;2022-08-19T09:14:07;18.80;99.90
18506;DHT22;9382;53.242;10.438;2022-08-19T09:16:37;18.90;99.90
18506;DHT22;9382;53.242;10.438;2022-08-19T09:19:07;18.90;99.90
18506;DHT22;9382;53.242;10.438;2022-08-19T09:21:34;19.00;99.90
18506;DHT22;9382;53.242;10.438;2022-08-19T09:24:02;19.00;99.90
18506;DHT22;9382;53.242;10.438;2022-08-19T09:26:31;19.00;99.90
18506;DHT22;9382;53.242;10.438;2022-08-19T09:28:58;19.00;99.90
18506;DHT22;9382;53.242;10.438;2022-08-19T09:31:29;19.10;99.90
18506;DHT22;9382;53.242;10.438;2022-08-19T09:33:56;19.10;99.90
18506;DHT22;9382;53.242;10.438;2022-08-19T09:36:25;19.10;99.90
18506;DHT22;9382;53.242;10.438;2022-08-19T09:38:52;19.10;99.90
18506;DHT22;9382;53.242;10.438;2022-08-19T09:41:22;19.20;99.90
18506;DHT22;9382;53.242;10.438;2022-08-19T09:43:52;19.20;99.90
18506;DHT22;9382;53.242;10.438;2022-08-19T09:46:22;19.20;99.90
18506;DHT22;9382;53.242;10.438;2022-08-19T09:48:50;19.20;99.90
18506;DHT22;9382;53.242;10.438;2022-08-19T09:51:19;19.30;99.90
18506;DHT22;9382;53.242;10.438;2022-08-19T09:53:48;19.20;99.90
18506;DHT22;9382;53.242;10.438;2022-08-19T09:56:17;19.10;99.90
18506;DHT22;9382;53.242;10.438;2022-08-19T09:58:44;19.00;99.90
18506;DHT22;9382;53.242;10.438;2022-08-19T10:01:18;19.10;99.90
18506;DHT22;9382;53.242;10.438;2022-08-19T10:03:48;19.20;99.90
18506;DHT22;9382;53.242;10.438;2022-08-19T10:06:16;19.30;99.90
18506;DHT22;9382;53.242;10.438;2022-08-19T10:08:43;19.30;99.90
18506;DHT22;9382;53.242;10.438;2022-08-19T10:11:10;19.40;99.90
18506;DHT22;9382;53.242;10.438;2022-08-19T10:13:39;19.50;99.90
18506;DHT22;9382;53.242;10.438;2022-08-19T10:16:09;19.40;99.90
18506;DHT22;9382;53.242;10.438;2022-08-19T10:18:38;19.50;99.90
18506;DHT22;9382;53.242;10.438;2022-08-19T10:21:09;19.50;99.90
18506;DHT22;9382;53.242;10.438;2022-08-19T10:23:38;19.40;99.90
18506;DHT22;9382;53.242;10.438;2022-08-19T10:26:05;19.50;99.90
18506;DHT22;9382;53.242;10.438;2022-08-19T10:28:33;19.60;99.90
18506;DHT22;9382;53.242;10.438;2022-08-19T10:31:04;19.60;99.90
18506;DHT22;9382;53.242;10.438;2022-08-19T10:33:32;19.70;99.90
18506;DHT22;9382;53.242;10.438;2022-08-19T10:36:01;19.70;99.90
18506;DHT22;9382;53.242;10.438;2022-08-19T10:38:29;19.70;99.90
18506;DHT22;9382;53.242;10.438;2022-08-19T10:40:56;19.80;99.90
18506;DHT22;9382;53.242;10.438;2022-08-19T10:43:23;19.80;99.90
18506;DHT22;9382;53.242;10.438;2022-08-19T10:45:54;19.90;99.90
18506;DHT22;9382;53.242;10.438;2022-08-19T10:48:23;20.00;99.90
18506;DHT22;9382;53.242;10.438;2022-08-19T10:50:50;20.00;99.90
18506;DHT22;9382;53.242;10.438;2022-08-19T10:53:36;20.00;99.90
18506;DHT22;9382;53.242;10.438;2022-08-19T10:56:03;20.00;99.90
18506;DHT22;9382;53.242;10.438;2022-08-19T10:58:48;20.10;99.90
18506;DHT22;9382;53.242;10.438;2022-08-19T11:01:15;20.20;99.90
18506;DHT22;9382;53.242;10.438;2022-08-19T11:03:42;20.20;99.90
18506;DHT22;9382;53.242;10.438;2022-08-19T11:06:11;20.30;99.90
18506;DHT22;9382;53.242;10.438;2022-08-19T11:08:39;20.30;99.90
18506;DHT22;9382;53.242;10.438;2022-08-19T11:11:07;20.30;99.90
18506;DHT22;9382;53.242;10.438;2022-08-19T11:13:38;20.30;99.90
18506;DHT22;9382;53.242;10.438;2022-08-19T11:16:06;20.30;99.90
18506;DHT22;9382;53.242;10.438;2022-08-19T11:18:35;20.30;99.90
18506;DHT22;9382;53.242;10.438;2022-08-19T11:21:07;20.30;99.90
18506;DHT22;9382;53.242;10.438;2022-08-19T11:23:34;20.40;99.90
18506;DHT22;9382;53.242;10.438;2022-08-19T11:26:03;20.50;99.90
18506;DHT22;9382;53.242;10.438;2022-08-19T11:28:29;20.60;99.90
18506;DHT22;9382;53.242;10.438;2022-08-19T11:30:56;20.70;99.90
18506;DHT22;9382;53.242;10.438;2022-08-19T11:33:23;20.80;99.90
18506;DHT22;9382;53.242;10.438;2022-08-19T11:35:51;20.90;99.90
18506;DHT22;9382;53.242;10.438;2022-08-19T11:38:18;20.90;99.90
18506;DHT22;9382;53.242;10.438;2022-08-19T11:40:45;21.00;99.90
18506;DHT22;9382;53.242;10.438;2022-08-19T11:43:21;21.10;99.90
18506;DHT22;9382;53.242;10.438;2022-08-19T11:45:47;21.20;99.90
18506;DHT22;9382;53.242;10.438;2022-08-19T11:48:14;21.20;99.90
18506;DHT22;9382;53.242;10.438;2022-08-19T11:50:41;21.30;99.90
18506;DHT22;9382;53.242;10.438;2022-08-19T11:53:09;21.40;99.90
18506;DHT22;9382;53.242;10.438;2022-08-19T11:55:37;21.40;99.90
18506;DHT22;9382;53.242;10.438;2022-08-19T11:58:04;21.50;99.90
18506;DHT22;9382;53.242;10.438;2022-08-19T12:00:34;21.60;99.90
18506;DHT22;9382;53.242;10.438;2022-08-19T12:03:02;21.70;99.90
18506;DHT22;9382;53.242;10.438;2022-08-19T12:05:29;21.70;99.90
18506;DHT22;9382;53.242;10.438;2022-08-19T12:07:56;21.60;99.90
18506;DHT22;9382;53.242;10.438;2022-08-19T12:10:23;21.60;99.90
18506;DHT22;9382;53.242;10.438;2022-08-19T12:12:50;21.70;99.90
18506;DHT22;9382;53.242;10.438;2022-08-19T12:15:17;21.80;99.90
18506;DHT22;9382;53.242;10.438;2022-08-19T12:17:45;21.90;99.90
18506;DHT22;9382;53.242;10.438;2022-08-19T12:20:13;22.00;99.90
18506;DHT22;9382;53.242;10.438;2022-08-19T12:22:41;22.00;99.90
18506;DHT22;9382;53.242;10.438;2022-08-19T12:25:09;21.90;99.90
18506;DHT22;9382;53.242;10.438;2022-08-19T12:27:36;21.90;99.90
18506;DHT22;9382;53.242;10.438;2022-08-19T12:30:04;21.80;99.90
18506;DHT22;9382;53.242;10.438;2022-08-19T12:32:31;21.80;99.90
18506;DHT22;9382;53.242;10.438;2022-08-19T12:34:59;21.80;99.90
18506;DHT22;9382;53.242;10.438;2022-08-19T12:37:26;21.90;99.90
18506;DHT22;9382;53.242;10.438;2022-08-19T12:39:53;21.90;99.90
18506;DHT22;9382;53.242;10.438;2022-08-19T12:42:20;21.80;99.90
18506;DHT22;9382;53.242;10.438;2022-08-19T12:44:47;21.70;99.90
18506;DHT22;9382;53.242;10.438;2022-08-19T12:47:14;21.80;99.90
18506;DHT22;9382;53.242;10.438;2022-08-19T12:49:41;21.80;99.90
18506;DHT22;9382;53.242;10.438;2022-08-19T12:52:11;21.80;99.90
18506;DHT22;9382;53.242;10.438;2022-08-19T12:54:40;21.80;99.90
18506;DHT22;9382;53.242;10.438;2022-08-19T12:57:09;21.80;99.90
18506;DHT22;9382;53.242;10.438;2022-08-19T12:59:37;21.70;99.90
18506;DHT22;9382;53.242;10.438;2022-08-19T13:02:04;21.70;99.90
18506;DHT22;9382;53.242;10.438;2022-08-19T13:04:31;21.70;99.90
18506;DHT22;9382;53.242;10.438;2022-08-19T13:07:01;21.70;99.90
18506;DHT22;9382;53.242;10.438;2022-08-19T13:09:29;21.80;99.90
18506;DHT22;9382;53.242;10.438;2022-08-19T13:11:56;21.80;99.90
18506;DHT22;9382;53.242;10.438;2022-08-19T13:14:23;21.90;99.90
18506;DHT22;9382;53.242;10.438;2022-08-19T13:16:49;22.10;99.90
18506;DHT22;9382;53.242;10.438;2022-08-19T13:19:16;22.50;99.90
18506;DHT22;9382;53.242;10.438;2022-08-19T13:21:49;22.80;99.90
18506;DHT22;9382;53.242;10.438;2022-08-19T13:24:16;23.00;99.90
18506;DHT22;9382;53.242;10.438;2022-08-19T13:26:44;23.00;99.90
18506;DHT22;9382;53.242;10.438;2022-08-19T13:29:11;23.00;99.90
18506;DHT22;9382;53.242;10.438;2022-08-19T13:32:03;22.90;99.90
18506;DHT22;9382;53.242;10.438;2022-08-19T13:34:48;22.80;99.90
18506;DHT22;9382;53.242;10.438;2022-08-19T13:37:14;22.80;99.90
18506;DHT22;9382;53.242;10.438;2022-08-19T13:39:41;22.90;99.90
18506;DHT22;9382;53.242;10.438;2022-08-19T13:42:09;22.90;99.90
18506;DHT22;9382;53.242;10.438;2022-08-19T13:44:38;23.00;99.90
18506;DHT22;9382;53.242;10.438;2022-08-19T13:47:05;22.90;99.90
18506;DHT22;9382;53.242;10.438;2022-08-19T13:49:33;22.80;99.90
18506;DHT22;9382;53.242;10.438;2022-08-19T13:52:01;22.60;99.90
18506;DHT22;9382;53.242;10.438;2022-08-19T13:54:28;22.60;99.90
18506;DHT22;9382;53.242;10.438;2022-08-19T13:56:54;22.50;99.90
18506;DHT22;9382;53.242;10.438;2022-08-19T13:59:22;22.70;99.90
18506;DHT22;9382;53.242;10.438;2022-08-19T14:01:50;23.00;99.90
18506;DHT22;9382;53.242;10.438;2022-08-19T14:04:17;23.20;99.90
18506;DHT22;9382;53.242;10.438;2022-08-19T14:06:44;23.30;99.90
18506;DHT22;9382;53.242;10.438;2022-08-19T14:09:10;23.40;99.90
18506;DHT22;9382;53.242;10.438;2022-08-19T14:11:37;23.80;99.90
18506;DHT22;9382;53.242;10.438;2022-08-19T14:14:04;24.50;99.90
18506;DHT22;9382;53.242;10.438;2022-08-19T14:16:32;25.50;99.90
18506;DHT22;9382;53.242;10.438;2022-08-19T14:18:59;26.10;99.90
18506;DHT22;9382;53.242;10.438;2022-08-19T14:21:25;26.10;99.90
18506;DHT22;9382;53.242;10.438;2022-08-19T14:23:53;25.90;99.90
18506;DHT22;9382;53.242;10.438;2022-08-19T14:26:21;25.70;99.90
18506;DHT22;9382;53.242;10.438;2022-08-19T14:28:48;25.30;99.90
18506;DHT22;9382;53.242;10.438;2022-08-19T14:31:16;25.00;99.90
18506;DHT22;9382;53.242;10.438;2022-08-19T14:33:46;24.60;99.90
18506;DHT22;9382;53.242;10.438;2022-08-19T14:36:13;24.50;99.90
18506;DHT22;9382;53.242;10.438;2022-08-19T14:38:40;24.00;99.90
18506;DHT22;9382;53.242;10.438;2022-08-19T14:41:10;24.20;99.90
18506;DHT22;9382;53.242;10.438;2022-08-19T14:43:37;24.70;99.90
18506;DHT22;9382;53.242;10.438;2022-08-19T14:46:04;25.30;99.90
18506;DHT22;9382;53.242;10.438;2022-08-19T14:48:31;25.80;99.90
18506;DHT22;9382;53.242;10.438;2022-08-19T14:50:59;25.90;99.90
18506;DHT22;9382;53.242;10.438;2022-08-19T14:53:26;25.90;99.90
18506;DHT22;9382;53.242;10.438;2022-08-19T14:55:52;26.20;99.90
18506;DHT22;9382;53.242;10.438;2022-08-19T14:58:19;27.10;99.90
18506;DHT22;9382;53.242;10.438;2022-08-19T15:00:46;27.50;99.90
18506;DHT22;9382;53.242;10.438;2022-08-19T15:03:13;27.80;99.90
18506;DHT22;9382;53.242;10.438;2022-08-19T15:05:39;28.60;99.90
18506;DHT22;9382;53.242;10.438;2022-08-19T15:08:07;29.20;99.90
18506;DHT22;9382;53.242;10.438;2022-08-19T15:10:35;30.20;99.90
18506;DHT22;9382;53.242;10.438;2022-08-19T15:13:02;30.60;99.90
18506;DHT22;9382;53.242;10.438;2022-08-19T15:15:29;30.60;99.90
18506;DHT22;9382;53.242;10.438;2022-08-19T15:17:55;31.10;99.90
18506;DHT22;9382;53.242;10.438;2022-08-19T15:20:28;31.50;99.90
18506;DHT22;9382;53.242;10.438;2022-08-19T15:22:56;31.10;99.90
18506;DHT22;9382;53.242;10.438;2022-08-19T15:25:24;31.00;99.90
18506;DHT22;9382;53.242;10.438;2022-08-19T15:27:51;31.80;99.90
18506;DHT22;9382;53.242;10.438;2022-08-19T15:30:21;32.60;99.90
18506;DHT22;9382;53.242;10.438;2022-08-19T15:32:48;32.70;99.90
18506;DHT22;9382;53.242;10.438;2022-08-19T15:35:15;32.00;99.90
18506;DHT22;9382;53.242;10.438;2022-08-19T15:37:44;32.10;99.90
18506;DHT22;9382;53.242;10.438;2022-08-19T15:40:11;32.50;99.90
18506;DHT22;9382;53.242;10.438;2022-08-19T15:42:39;32.90;99.90